createdAt,value
2022-11-29T00:01:10.930Z,6.40
2022-11-29T00:03:37.576Z,6.31
2022-11-29T00:06:04.884Z,6.37
2022-11-29T00:08:31.319Z,6.31
2022-11-29T00:11:03.355Z,6.38
2022-11-29T00:13:29.764Z,6.32
2022-11-29T00:15:56.145Z,6.35
2022-11-29T00:18:22.541Z,6.33
2022-11-29T00:20:48.950Z,6.29
2022-11-29T00:23:15.339Z,6.23
2022-11-29T00:25:41.721Z,6.24
2022-11-29T00:28:08.152Z,6.25
2022-11-29T00:30:34.874Z,6.24
2022-11-29T00:33:02.989Z,6.28
2022-11-29T00:35:29.391Z,6.26
2022-11-29T00:37:55.803Z,6.24
2022-11-29T00:40:22.205Z,6.20
2022-11-29T00:42:48.618Z,6.25
2022-11-29T00:45:15.012Z,6.22
2022-11-29T00:47:41.460Z,6.18
2022-11-29T00:50:08.222Z,6.17
2022-11-29T00:52:34.626Z,6.14
2022-11-29T00:55:01.090Z,6.13
2022-11-29T00:57:27.631Z,6.09
2022-11-29T00:59:53.908Z,6.11
2022-11-29T01:02:20.389Z,6.07
2022-11-29T01:04:47.211Z,6.09
2022-11-29T01:07:13.802Z,6.12
2022-11-29T01:09:40.325Z,6.09
2022-11-29T01:12:06.890Z,6.10
2022-11-29T01:14:33.316Z,6.07
2022-11-29T01:16:59.826Z,6.06
2022-11-29T01:19:26.270Z,6.11
2022-11-29T01:21:52.724Z,6.11
2022-11-29T01:24:19.111Z,6.08
2022-11-29T01:26:45.778Z,6.06
2022-11-29T01:29:12.901Z,6.02
2022-11-29T01:31:39.296Z,5.99
2022-11-29T01:34:06.896Z,6.03
2022-11-29T01:36:34.390Z,6.05
2022-11-29T01:39:02.397Z,6.06
2022-11-29T01:41:32.075Z,6.07
2022-11-29T01:44:06.907Z,6.07
2022-11-29T01:46:39.115Z,6.10
2022-11-29T01:49:22.125Z,6.07
2022-11-29T01:51:55.883Z,6.04
2022-11-29T01:54:22.701Z,6.02
2022-11-29T01:56:51.616Z,6.02
2022-11-29T01:59:22.066Z,6.02
2022-11-29T02:01:48.637Z,6.03
2022-11-29T02:04:17.418Z,6.04
2022-11-29T02:06:44.392Z,6.04
2022-11-29T02:09:19.747Z,6.05
2022-11-29T02:12:11.706Z,6.09
2022-11-29T02:15:06.766Z,6.05
2022-11-29T02:17:44.948Z,6.04
2022-11-29T02:20:26.607Z,6.04
2022-11-29T02:22:56.027Z,5.95
2022-11-29T02:26:00.708Z,5.95
2022-11-29T02:28:36.610Z,5.93
2022-11-29T02:31:39.908Z,5.93
2022-11-29T02:34:06.293Z,5.85
2022-11-29T02:36:45.359Z,5.84
2022-11-29T02:39:36.399Z,5.83
2022-11-29T02:42:52.583Z,5.86
2022-11-29T02:45:41.755Z,5.90
2022-11-29T02:48:27.538Z,5.88
2022-11-29T02:51:19.792Z,5.92
2022-11-29T02:54:16.637Z,5.88
2022-11-29T02:56:46.219Z,5.84
2022-11-29T02:59:16.654Z,5.86
2022-11-29T03:01:52.416Z,5.88
2022-11-29T03:05:10.320Z,5.83
2022-11-29T03:07:45.791Z,5.84
2022-11-29T03:10:49.179Z,5.85
2022-11-29T03:13:45.425Z,5.84
2022-11-29T03:16:28.532Z,5.83
2022-11-29T03:19:00.550Z,5.84
2022-11-29T03:21:41.782Z,5.87
2022-11-29T03:24:45.111Z,5.87
2022-11-29T03:27:22.068Z,5.81
2022-11-29T03:29:56.127Z,5.78
2022-11-29T03:32:29.881Z,5.78
2022-11-29T03:35:07.050Z,5.78
2022-11-29T03:37:33.347Z,5.80
2022-11-29T03:40:06.745Z,5.79
2022-11-29T03:42:41.062Z,5.78
2022-11-29T03:45:15.289Z,5.83
2022-11-29T03:47:51.285Z,5.81
2022-11-29T03:50:25.018Z,5.78
2022-11-29T03:53:00.156Z,5.72
2022-11-29T03:55:50.535Z,5.71
2022-11-29T03:58:48.611Z,5.71
2022-11-29T04:01:51.013Z,5.62
2022-11-29T04:04:27.516Z,5.55
2022-11-29T04:07:18.554Z,5.53
2022-11-29T04:10:11.729Z,5.51
2022-11-29T04:12:57.299Z,5.49
2022-11-29T04:16:04.129Z,5.48
2022-11-29T04:18:46.708Z,5.45
2022-11-29T04:21:43.258Z,5.47
2022-11-29T04:24:38.917Z,5.42
2022-11-29T04:27:17.575Z,5.39
2022-11-29T04:30:02.565Z,5.40
2022-11-29T04:33:10.098Z,5.36
2022-11-29T04:35:42.841Z,5.34
2022-11-29T04:38:45.416Z,5.30
2022-11-29T04:41:20.856Z,5.27
2022-11-29T04:43:59.284Z,5.25
2022-11-29T04:46:47.781Z,5.25
2022-11-29T04:49:52.041Z,5.23
2022-11-29T04:52:36.664Z,5.20
2022-11-29T04:55:30.475Z,5.16
2022-11-29T04:58:22.854Z,5.20
2022-11-29T05:01:07.949Z,5.16
2022-11-29T05:03:41.684Z,5.12
2022-11-29T05:06:19.094Z,5.09
2022-11-29T05:08:59.379Z,5.01
2022-11-29T05:11:35.003Z,5.04
2022-11-29T05:14:17.540Z,5.01
2022-11-29T05:16:48.823Z,4.95
2022-11-29T05:19:41.483Z,4.99
2022-11-29T05:22:34.110Z,4.91
2022-11-29T05:25:30.363Z,4.89
2022-11-29T05:28:10.014Z,4.90
2022-11-29T05:31:18.764Z,4.91
2022-11-29T05:33:45.154Z,4.89
2022-11-29T05:36:29.862Z,4.86
2022-11-29T05:39:15.812Z,4.85
2022-11-29T05:41:56.747Z,4.83
2022-11-29T05:44:35.535Z,4.74
2022-11-29T05:47:05.928Z,4.67
2022-11-29T05:49:44.751Z,4.63
2022-11-29T05:52:39.212Z,4.55
2022-11-29T05:55:15.027Z,4.58
2022-11-29T05:58:08.390Z,4.55
2022-11-29T06:00:45.958Z,4.43
2022-11-29T06:03:24.007Z,4.45
2022-11-29T06:05:58.323Z,4.41
2022-11-29T06:08:44.522Z,4.40
2022-11-29T06:11:16.487Z,4.26
2022-11-29T06:14:07.942Z,4.42
2022-11-29T06:16:56.929Z,4.35
2022-11-29T06:19:59.674Z,4.30
2022-11-29T06:22:48.921Z,4.27
2022-11-29T06:25:41.827Z,4.23
2022-11-29T06:28:41.720Z,4.18
2022-11-29T06:31:29.527Z,4.17
2022-11-29T06:34:09.228Z,4.12
2022-11-29T06:37:08.653Z,4.19
2022-11-29T06:39:35.583Z,4.19
2022-11-29T06:42:02.185Z,4.09
2022-11-29T06:44:28.695Z,4.10
2022-11-29T06:47:01.084Z,4.08
2022-11-29T06:49:35.600Z,4.08
2022-11-29T06:52:26.488Z,4.04
2022-11-29T06:55:07.561Z,4.00
2022-11-29T06:57:36.919Z,4.00
2022-11-29T07:00:16.298Z,4.03
2022-11-29T07:03:20.202Z,4.06
2022-11-29T07:05:47.351Z,4.07
2022-11-29T07:08:19.982Z,4.07
2022-11-29T07:10:49.940Z,4.04
2022-11-29T07:13:18.028Z,4.06
2022-11-29T07:16:07.077Z,4.09
2022-11-29T07:18:39.264Z,4.16
2022-11-29T07:21:16.712Z,4.15
2022-11-29T07:24:04.547Z,4.16
2022-11-29T07:26:43.593Z,4.18
2022-11-29T07:29:25.264Z,4.24
2022-11-29T07:32:34.348Z,4.25
2022-11-29T07:35:08.662Z,4.27
2022-11-29T07:37:57.588Z,4.27
2022-11-29T07:40:24.183Z,4.30
2022-11-29T07:42:50.500Z,4.37
2022-11-29T07:45:27.385Z,4.39
2022-11-29T07:47:54.111Z,4.42
2022-11-29T07:50:21.691Z,4.48
2022-11-29T07:52:48.708Z,4.54
2022-11-29T07:55:19.152Z,4.57
2022-11-29T07:57:46.553Z,4.66
2022-11-29T08:00:13.933Z,4.74
2022-11-29T08:02:41.770Z,4.82
2022-11-29T08:05:09.227Z,4.76
2022-11-29T08:07:37.816Z,4.89
2022-11-29T08:10:07.156Z,4.90
2022-11-29T08:12:33.570Z,4.96
2022-11-29T08:15:00.153Z,4.96
2022-11-29T08:17:26.699Z,5.08
2022-11-29T08:19:53.076Z,5.14
2022-11-29T08:22:19.888Z,5.22
2022-11-29T08:24:46.555Z,5.24
2022-11-29T08:27:13.249Z,5.33
2022-11-29T08:29:39.719Z,5.39
2022-11-29T08:32:06.349Z,5.51
2022-11-29T08:34:34.083Z,5.52
2022-11-29T08:37:00.439Z,5.65
2022-11-29T08:39:26.894Z,5.66
2022-11-29T08:41:53.298Z,5.66
2022-11-29T08:44:20.091Z,5.78
2022-11-29T08:47:04.960Z,5.77
2022-11-29T08:49:31.381Z,5.82
2022-11-29T08:52:17.743Z,5.79
2022-11-29T08:54:44.690Z,5.81
2022-11-29T08:57:38.390Z,5.84
2022-11-29T08:59:57.709Z,5.85
2022-11-29T09:02:26.701Z,5.97
2022-11-29T09:04:53.139Z,6.19
2022-11-29T09:07:19.590Z,6.22
2022-11-29T09:09:46.140Z,6.18
2022-11-29T09:12:12.527Z,6.21
2022-11-29T09:14:38.905Z,6.17
2022-11-29T09:17:05.431Z,6.24
2022-11-29T09:19:32.322Z,6.31
2022-11-29T09:21:58.708Z,6.36
2022-11-29T09:24:25.233Z,6.38
2022-11-29T09:26:52.270Z,6.40
2022-11-29T09:29:18.859Z,6.36
2022-11-29T09:31:45.335Z,6.44
2022-11-29T09:34:16.087Z,6.47
2022-11-29T09:36:44.137Z,6.42
2022-11-29T09:39:12.373Z,6.41
2022-11-29T09:42:06.242Z,6.35
2022-11-29T09:44:35.457Z,6.42
2022-11-29T09:47:20.515Z,6.47
2022-11-29T09:50:21.228Z,6.52
2022-11-29T09:53:09.437Z,6.54
2022-11-29T09:55:50.136Z,6.53
2022-11-29T09:58:21.574Z,6.48
2022-11-29T10:00:58.509Z,6.57
2022-11-29T10:03:45.163Z,6.51
2022-11-29T10:06:22.086Z,6.54
2022-11-29T10:08:55.703Z,6.52
2022-11-29T10:11:32.889Z,6.54
2022-11-29T10:14:24.494Z,6.62
2022-11-29T10:17:13.746Z,6.63
2022-11-29T10:19:47.431Z,6.68
2022-11-29T10:22:31.362Z,6.71
2022-11-29T10:25:01.351Z,6.71
2022-11-29T10:27:29.495Z,6.69
2022-11-29T10:29:59.136Z,6.73
2022-11-29T10:32:26.096Z,6.69
2022-11-29T10:34:52.744Z,6.70
2022-11-29T10:37:21.460Z,6.75
2022-11-29T10:39:58.529Z,6.80
2022-11-29T10:42:46.869Z,6.84
2022-11-29T10:45:35.050Z,6.84
2022-11-29T10:48:04.153Z,6.87
2022-11-29T10:50:33.623Z,6.88
2022-11-29T10:53:09.441Z,6.88
2022-11-29T10:55:46.825Z,6.87
2022-11-29T10:58:28.402Z,6.89
2022-11-29T11:00:57.218Z,6.80
2022-11-29T11:03:43.323Z,6.82
2022-11-29T11:06:14.271Z,6.82
2022-11-29T11:08:44.840Z,6.80
2022-11-29T11:11:12.144Z,6.83
2022-11-29T11:13:40.796Z,6.77
2022-11-29T11:16:14.454Z,6.73
2022-11-29T11:18:41.316Z,6.57
2022-11-29T11:21:11.005Z,6.68
2022-11-29T11:23:45.447Z,6.71
2022-11-29T11:26:13.504Z,6.70
2022-11-29T11:29:02.281Z,6.69
2022-11-29T11:31:35.418Z,6.69
2022-11-29T11:34:34.241Z,6.71
2022-11-29T11:37:22.095Z,6.75
2022-11-29T11:39:50.120Z,6.66
2022-11-29T11:42:39.029Z,6.67
2022-11-29T11:45:11.486Z,6.66
2022-11-29T11:47:44.011Z,6.63
2022-11-29T11:50:16.606Z,6.68
2022-11-29T11:52:53.791Z,6.67
2022-11-29T11:55:34.409Z,6.55
2022-11-29T11:58:12.771Z,6.54
2022-11-29T12:03:31.414Z,6.62
2022-11-29T12:06:07.988Z,6.71
2022-11-29T12:08:36.626Z,6.60
2022-11-29T12:11:07.736Z,6.57
2022-11-29T12:13:39.800Z,6.53
2022-11-29T12:16:14.432Z,6.51
2022-11-29T12:18:47.603Z,6.39
2022-11-29T12:21:22.932Z,6.33
2022-11-29T12:23:59.952Z,6.33
2022-11-29T12:29:19.608Z,6.26
2022-11-29T12:32:04.321Z,6.27
2022-11-29T12:34:43.473Z,6.18
2022-11-29T12:37:31.367Z,6.24
2022-11-29T12:39:57.701Z,6.24
2022-11-29T12:42:55.131Z,6.22
2022-11-29T12:45:33.011Z,6.28
2022-11-29T12:48:14.535Z,6.17
2022-11-29T12:51:06.006Z,6.02
2022-11-29T12:53:43.748Z,6.03
2022-11-29T12:56:25.759Z,6.10
2022-11-29T12:59:28.770Z,6.05
2022-11-29T13:02:16.055Z,6.03
2022-11-29T13:05:19.412Z,5.93
2022-11-29T13:07:48.727Z,5.94
2022-11-29T13:10:39.901Z,6.00
2022-11-29T13:13:25.462Z,6.01
2022-11-29T13:16:06.682Z,6.06
2022-11-29T13:18:47.278Z,6.02
2022-11-29T13:21:25.888Z,6.04
2022-11-29T13:24:42.978Z,5.95
2022-11-29T13:27:18.251Z,6.07
2022-11-29T13:29:46.260Z,6.02
2022-11-29T13:32:36.332Z,5.94
2022-11-29T13:35:20.184Z,5.96
2022-11-29T13:38:08.540Z,5.92
2022-11-29T13:40:51.803Z,5.98
2022-11-29T13:43:30.295Z,5.90
2022-11-29T13:46:16.862Z,5.92
2022-11-29T13:48:47.589Z,5.96
2022-11-29T13:51:34.391Z,6.08
2022-11-29T13:54:04.808Z,6.03
2022-11-29T13:56:47.824Z,6.06
2022-11-29T13:59:31.624Z,6.10
2022-11-29T14:01:59.145Z,6.14
2022-11-29T14:04:33.682Z,6.17
2022-11-29T14:07:18.364Z,6.18
2022-11-29T14:09:50.658Z,6.17
2022-11-29T14:12:35.900Z,6.12
2022-11-29T14:15:31.663Z,6.11
2022-11-29T14:18:03.511Z,6.18
2022-11-29T14:20:29.920Z,6.16
2022-11-29T14:23:05.395Z,6.12
2022-11-29T14:25:51.103Z,6.09
2022-11-29T14:28:18.239Z,6.06
2022-11-29T14:30:44.560Z,6.17
2022-11-29T14:33:38.501Z,6.14
2022-11-29T14:36:43.595Z,6.12
2022-11-29T14:39:13.043Z,6.11
2022-11-29T14:41:54.510Z,6.12
2022-11-29T14:44:28.024Z,6.17
2022-11-29T14:47:02.263Z,6.14
2022-11-29T14:49:30.115Z,6.18
2022-11-29T14:52:26.088Z,6.18
2022-11-29T14:55:01.774Z,6.21
2022-11-29T14:57:52.787Z,6.18
2022-11-29T15:00:30.383Z,6.28
2022-11-29T15:03:20.514Z,6.16
2022-11-29T15:05:59.438Z,6.19
2022-11-29T15:08:36.625Z,6.24
2022-11-29T15:11:11.687Z,6.21
2022-11-29T15:14:04.690Z,6.19
2022-11-29T15:17:20.057Z,6.20
2022-11-29T15:20:23.668Z,6.13
2022-11-29T15:22:55.152Z,6.17
2022-11-29T15:25:28.233Z,6.21
2022-11-29T15:27:57.447Z,6.14
2022-11-29T15:30:39.047Z,6.09
2022-11-29T15:33:27.307Z,6.13
2022-11-29T15:36:24.246Z,6.16
2022-11-29T15:38:55.365Z,6.15
2022-11-29T15:41:31.796Z,6.12
2022-11-29T15:44:04.682Z,6.14
2022-11-29T15:46:33.303Z,6.12
2022-11-29T15:49:30.578Z,6.09
2022-11-29T15:52:05.955Z,6.04
2022-11-29T15:54:41.994Z,6.15
2022-11-29T15:57:33.099Z,6.12
2022-11-29T16:00:02.809Z,6.15
2022-11-29T16:02:34.481Z,6.25
2022-11-29T16:05:19.464Z,6.17
2022-11-29T16:07:49.281Z,6.16
2022-11-29T16:10:34.867Z,6.19
2022-11-29T16:13:36.825Z,6.18
2022-11-29T16:16:06.153Z,6.18
2022-11-29T16:18:33.506Z,6.17
2022-11-29T16:21:01.553Z,6.19
2022-11-29T16:23:41.216Z,6.18
2022-11-29T16:26:18.976Z,6.16
2022-11-29T16:28:48.294Z,6.14
2022-11-29T16:31:18.132Z,6.11
2022-11-29T16:33:47.341Z,6.11
2022-11-29T16:36:20.614Z,6.17
2022-11-29T16:38:50.171Z,6.12
2022-11-29T16:41:37.565Z,6.10
2022-11-29T16:44:06.406Z,6.11
2022-11-29T16:46:39.758Z,6.12
2022-11-29T16:49:35.025Z,6.07
2022-11-29T16:52:03.747Z,6.09
2022-11-29T16:54:34.009Z,6.08
2022-11-29T16:57:05.108Z,6.09
2022-11-29T16:59:32.442Z,6.08
2022-11-29T17:01:59.032Z,6.03
2022-11-29T17:04:27.442Z,6.05
2022-11-29T17:06:55.805Z,6.04
2022-11-29T17:09:27.748Z,6.09
2022-11-29T17:11:55.654Z,6.07
2022-11-29T17:14:22.184Z,6.09
2022-11-29T17:16:49.585Z,6.04
2022-11-29T17:19:16.518Z,6.05
2022-11-29T17:21:43.131Z,6.01
2022-11-29T17:24:11.192Z,6.03
2022-11-29T17:26:37.752Z,5.97
2022-11-29T17:29:04.181Z,6.01
2022-11-29T17:31:31.353Z,5.97
2022-11-29T17:34:01.631Z,6.00
2022-11-29T17:36:28.593Z,5.98
2022-11-29T17:38:55.019Z,5.94
2022-11-29T17:41:23.691Z,5.94
2022-11-29T17:43:52.971Z,5.94
2022-11-29T17:46:26.499Z,5.93
2022-11-29T17:48:54.809Z,5.92
2022-11-29T17:51:50.577Z,5.92
2022-11-29T17:54:10.300Z,5.88
2022-11-29T17:56:37.015Z,5.85
2022-11-29T17:59:04.883Z,5.84
2022-11-29T18:01:34.039Z,5.83
2022-11-29T18:04:03.179Z,5.84
2022-11-29T18:06:34.121Z,5.87
2022-11-29T18:09:01.684Z,5.84
2022-11-29T18:11:30.998Z,5.82
2022-11-29T18:13:58.892Z,5.79
2022-11-29T18:16:31.236Z,5.82
2022-11-29T18:19:10.505Z,5.84
2022-11-29T18:21:38.199Z,5.84
2022-11-29T18:24:06.042Z,5.84
2022-11-29T18:26:34.413Z,5.83
2022-11-29T18:29:00.979Z,5.79
2022-11-29T18:31:31.778Z,5.84
2022-11-29T18:34:00.636Z,5.82
2022-11-29T18:36:32.174Z,5.82
2022-11-29T18:39:01.222Z,5.85
2022-11-29T18:41:29.890Z,5.83
2022-11-29T18:43:58.911Z,5.86
2022-11-29T18:46:26.598Z,5.85
2022-11-29T18:48:53.084Z,5.81
2022-11-29T18:51:20.192Z,5.83
2022-11-29T18:53:47.310Z,5.77
2022-11-29T18:56:20.002Z,5.79
2022-11-29T18:58:48.037Z,5.82
2022-11-29T19:01:17.287Z,5.78
2022-11-29T19:03:46.161Z,5.78
2022-11-29T19:06:15.511Z,5.77
2022-11-29T19:08:43.180Z,5.81
2022-11-29T19:11:17.842Z,5.78
2022-11-29T19:13:44.620Z,5.78
2022-11-29T19:16:15.525Z,5.80
2022-11-29T19:18:42.558Z,5.75
2022-11-29T19:21:16.465Z,5.77
2022-11-29T19:23:44.311Z,5.75
2022-11-29T19:26:13.563Z,5.78
2022-11-29T19:28:45.367Z,5.77
2022-11-29T19:31:14.292Z,5.75
2022-11-29T19:33:43.627Z,5.73
2022-11-29T19:36:17.825Z,5.70
2022-11-29T19:38:50.141Z,5.70
2022-11-29T19:41:22.331Z,5.76
2022-11-29T19:43:49.410Z,5.75
2022-11-29T19:46:22.004Z,5.79
2022-11-29T19:48:49.295Z,5.78
2022-11-29T19:51:19.416Z,5.80
2022-11-29T19:53:47.140Z,5.80
2022-11-29T19:56:17.502Z,5.81
2022-11-29T19:58:44.325Z,5.77
2022-11-29T20:01:17.278Z,5.72
2022-11-29T20:03:45.196Z,5.79
2022-11-29T20:06:13.392Z,5.86
2022-11-29T20:08:40.846Z,5.86
2022-11-29T20:11:19.376Z,5.87
2022-11-29T20:13:48.094Z,5.86
2022-11-29T20:16:18.218Z,5.83
2022-11-29T20:18:50.966Z,5.85
2022-11-29T20:21:28.104Z,5.85
2022-11-29T20:23:59.998Z,5.82
2022-11-29T20:26:30.866Z,5.81
2022-11-29T20:28:57.759Z,5.83
2022-11-29T20:31:25.204Z,5.80
2022-11-29T20:33:53.786Z,5.83
2022-11-29T20:36:48.165Z,5.80
2022-11-29T20:39:37.656Z,5.83
2022-11-29T20:42:29.122Z,5.86
2022-11-29T20:44:59.258Z,5.85
2022-11-29T20:47:28.414Z,5.85
2022-11-29T20:49:55.257Z,5.82
2022-11-29T20:52:45.701Z,5.81
2022-11-29T20:55:12.203Z,5.77
2022-11-29T20:57:38.695Z,5.78
2022-11-29T21:00:11.533Z,5.81
2022-11-29T21:02:38.795Z,5.80
2022-11-29T21:05:06.150Z,5.82
2022-11-29T21:07:32.724Z,5.75
2022-11-29T21:10:01.358Z,5.80
2022-11-29T21:12:29.617Z,5.82
2022-11-29T21:14:57.020Z,5.74
2022-11-29T21:17:27.540Z,5.72
2022-11-29T21:19:58.699Z,5.74
2022-11-29T21:23:00.719Z,5.75
2022-11-29T21:25:40.585Z,5.74
2022-11-29T21:28:12.812Z,5.77
2022-11-29T21:30:41.518Z,5.73
2022-11-29T21:33:10.000Z,5.73
2022-11-29T21:35:39.765Z,5.71
2022-11-29T21:38:10.048Z,5.72
2022-11-29T21:40:36.472Z,5.66
2022-11-29T21:43:02.864Z,5.67
2022-11-29T21:45:29.311Z,5.68
2022-11-29T21:47:59.502Z,5.59
2022-11-29T21:50:28.780Z,5.62
2022-11-29T21:52:56.911Z,5.60
2022-11-29T21:55:31.417Z,5.66
2022-11-29T21:57:58.670Z,5.60
2022-11-29T22:00:25.071Z,5.68
2022-11-29T22:02:51.650Z,5.64
2022-11-29T22:05:17.998Z,5.72
2022-11-29T22:07:44.434Z,5.58
2022-11-29T22:10:13.650Z,5.53
2022-11-29T22:12:45.911Z,5.67
2022-11-29T22:15:22.952Z,5.63
2022-11-29T22:17:52.188Z,5.75
2022-11-29T22:20:18.682Z,5.85
2022-11-29T22:22:47.521Z,5.70
2022-11-29T22:25:14.653Z,5.48
2022-11-29T22:27:41.071Z,5.44
2022-11-29T22:30:08.984Z,5.49
2022-11-29T22:32:35.483Z,5.54
2022-11-29T22:35:01.862Z,5.47
2022-11-29T22:37:28.316Z,5.43
2022-11-29T22:39:54.772Z,5.41
2022-11-29T22:42:21.175Z,5.55
2022-11-29T22:44:48.072Z,5.46
2022-11-29T22:47:14.620Z,5.38
2022-11-29T22:49:41.030Z,5.41
2022-11-29T22:52:07.509Z,5.43
2022-11-29T22:54:33.898Z,5.46
2022-11-29T22:57:00.334Z,5.48
2022-11-29T22:59:26.699Z,5.51
2022-11-29T23:01:53.182Z,5.49
2022-11-29T23:04:19.565Z,5.53
2022-11-29T23:06:46.270Z,5.47
2022-11-29T23:09:19.831Z,5.47
2022-11-29T23:11:52.733Z,5.44
2022-11-29T23:14:20.114Z,5.46
2022-11-29T23:16:46.948Z,5.51
2022-11-29T23:19:16.011Z,5.53
2022-11-29T23:21:44.610Z,5.55
2022-11-29T23:24:11.405Z,5.56
2022-11-29T23:26:41.098Z,5.58
2022-11-29T23:29:10.530Z,5.55
2022-11-29T23:31:36.997Z,5.51
2022-11-29T23:34:03.577Z,5.52
2022-11-29T23:36:29.997Z,5.56
2022-11-29T23:38:56.410Z,5.54
2022-11-29T23:41:22.888Z,5.54
2022-11-29T23:43:49.301Z,5.56
2022-11-29T23:46:21.271Z,5.55
2022-11-29T23:48:48.351Z,5.51
2022-11-29T23:51:16.184Z,5.55
2022-11-29T23:53:43.044Z,5.53
2022-11-29T23:56:15.059Z,5.53
2022-11-29T23:58:42.210Z,5.56
